createdAt,value
2023-09-26T00:00:26.399Z,12.88
2023-09-26T00:02:29.146Z,12.86
2023-09-26T00:04:33.386Z,12.88
2023-09-26T00:06:36.171Z,12.86
2023-09-26T00:08:38.960Z,12.94
2023-09-26T00:10:41.680Z,12.96
2023-09-26T00:12:44.685Z,12.94
2023-09-26T00:14:47.513Z,12.89
2023-09-26T00:16:50.309Z,12.92
2023-09-26T00:18:53.062Z,12.90
2023-09-26T00:20:55.745Z,12.88
2023-09-26T00:22:58.646Z,12.81
2023-09-26T00:25:01.833Z,12.85
2023-09-26T00:27:05.253Z,12.86
2023-09-26T00:29:08.023Z,12.85
2023-09-26T00:31:10.963Z,12.86
2023-09-26T00:33:13.740Z,12.83
2023-09-26T00:35:16.744Z,12.92
2023-09-26T00:37:19.721Z,12.94
2023-09-26T00:39:22.979Z,12.95
2023-09-26T00:41:25.745Z,12.98
2023-09-26T00:43:28.494Z,12.94
2023-09-26T00:45:31.828Z,12.91
2023-09-26T00:47:36.737Z,12.87
2023-09-26T00:49:40.069Z,12.86
2023-09-26T00:51:42.823Z,12.82
2023-09-26T00:53:45.720Z,12.77
2023-09-26T00:55:52.265Z,12.75
2023-09-26T00:57:56.288Z,12.71
2023-09-26T01:00:00.784Z,12.71
2023-09-26T01:02:03.599Z,12.63
2023-09-26T01:04:07.607Z,12.60
2023-09-26T01:06:10.513Z,12.57
2023-09-26T01:08:13.522Z,12.51
2023-09-26T01:10:16.630Z,12.50
2023-09-26T01:12:21.328Z,12.48
2023-09-26T01:14:24.014Z,12.51
2023-09-26T01:16:27.003Z,12.44
2023-09-26T01:18:30.396Z,12.43
2023-09-26T01:20:33.105Z,12.46
2023-09-26T01:22:36.205Z,12.43
2023-09-26T01:24:39.180Z,12.46
2023-09-26T01:26:41.852Z,12.48
2023-09-26T01:28:44.598Z,12.48
2023-09-26T01:30:47.703Z,12.44
2023-09-26T01:32:50.403Z,12.42
2023-09-26T01:34:53.056Z,12.37
2023-09-26T01:36:55.744Z,12.32
2023-09-26T01:38:58.809Z,12.35
2023-09-26T01:41:01.516Z,12.32
2023-09-26T01:43:04.701Z,12.24
2023-09-26T01:45:08.184Z,12.22
2023-09-26T01:47:19.760Z,12.22
2023-09-26T01:49:22.471Z,12.24
2023-09-26T01:51:25.263Z,12.26
2023-09-26T01:53:27.846Z,12.24
2023-09-26T01:55:30.562Z,12.20
2023-09-26T01:57:34.246Z,12.22
2023-09-26T01:59:36.878Z,12.24
2023-09-26T02:01:39.665Z,12.20
2023-09-26T02:03:43.355Z,12.16
2023-09-26T02:05:46.046Z,12.15
2023-09-26T02:07:49.803Z,12.13
2023-09-26T02:09:53.875Z,12.13
2023-09-26T02:11:56.561Z,12.16
2023-09-26T02:13:59.453Z,12.22
2023-09-26T02:16:02.414Z,12.26
2023-09-26T02:18:06.549Z,12.33
2023-09-26T02:20:15.899Z,12.31
2023-09-26T02:22:19.557Z,12.29
2023-09-26T02:24:22.128Z,12.27
2023-09-26T02:26:24.863Z,12.23
2023-09-26T02:28:27.574Z,12.19
2023-09-26T02:30:30.387Z,12.19
2023-09-26T02:32:33.872Z,12.21
2023-09-26T02:34:36.623Z,12.17
2023-09-26T02:36:39.242Z,12.21
2023-09-26T02:38:41.964Z,12.21
2023-09-26T02:40:44.606Z,12.23
2023-09-26T02:42:47.906Z,12.20
2023-09-26T02:44:51.259Z,12.18
2023-09-26T02:46:53.919Z,12.18
2023-09-26T02:48:56.823Z,12.21
2023-09-26T02:51:06.340Z,12.20
2023-09-26T02:53:08.969Z,12.21
2023-09-26T02:55:12.331Z,12.29
2023-09-26T02:57:16.248Z,12.23
2023-09-26T02:59:18.918Z,12.24
2023-09-26T03:01:21.932Z,12.31
2023-09-26T03:03:24.700Z,12.30
2023-09-26T03:05:27.386Z,12.30
2023-09-26T03:07:30.136Z,12.27
2023-09-26T03:09:32.924Z,12.27
2023-09-26T03:11:35.677Z,12.33
2023-09-26T03:13:39.291Z,12.43
2023-09-26T03:15:42.029Z,12.45
2023-09-26T03:17:44.919Z,12.48
2023-09-26T03:19:47.771Z,12.50
2023-09-26T03:21:53.702Z,12.50
2023-09-26T03:23:56.800Z,12.51
2023-09-26T03:25:59.676Z,12.55
2023-09-26T03:28:03.670Z,12.55
2023-09-26T03:30:07.303Z,12.47
2023-09-26T03:32:09.973Z,12.52
2023-09-26T03:34:13.081Z,12.54
2023-09-26T03:36:15.796Z,12.57
2023-09-26T03:38:18.528Z,12.57
2023-09-26T03:40:21.314Z,12.57
2023-09-26T03:42:23.989Z,12.71
2023-09-26T03:44:26.755Z,12.72
2023-09-26T03:46:29.448Z,12.75
2023-09-26T03:48:33.240Z,12.77
2023-09-26T03:50:35.929Z,12.85
2023-09-26T03:52:38.623Z,12.85
2023-09-26T03:54:41.317Z,12.85
2023-09-26T03:56:44.384Z,12.84
2023-09-26T03:58:47.049Z,12.87
2023-09-26T04:00:50.221Z,12.93
2023-09-26T04:02:55.764Z,12.97
2023-09-26T04:04:58.514Z,12.94
2023-09-26T04:07:01.720Z,12.95
2023-09-26T04:09:04.676Z,13.02
2023-09-26T04:11:13.197Z,13.04
2023-09-26T04:13:16.146Z,13.05
2023-09-26T04:15:19.090Z,13.06
2023-09-26T04:17:21.917Z,13.07
2023-09-26T04:19:24.826Z,13.05
2023-09-26T04:21:27.613Z,12.95
2023-09-26T04:23:30.473Z,12.95
2023-09-26T04:25:35.788Z,13.08
2023-09-26T04:27:39.188Z,13.14
2023-09-26T04:29:41.950Z,13.17
2023-09-26T04:31:44.874Z,13.19
2023-09-26T04:33:49.790Z,13.21
2023-09-26T04:35:58.927Z,13.26
2023-09-26T04:38:02.316Z,13.41
2023-09-26T04:40:11.836Z,13.51
2023-09-26T04:42:14.534Z,13.61
2023-09-26T04:44:17.221Z,13.70
2023-09-26T04:46:19.959Z,13.80
2023-09-26T04:48:22.838Z,13.81
2023-09-26T04:50:25.640Z,13.86
2023-09-26T04:52:28.399Z,13.89
2023-09-26T04:54:31.285Z,13.74
2023-09-26T04:56:33.910Z,13.72
2023-09-26T04:58:36.580Z,13.81
2023-09-26T05:00:39.274Z,13.87
2023-09-26T05:02:41.991Z,13.86
2023-09-26T05:04:47.143Z,13.83
2023-09-26T05:06:49.924Z,13.90
2023-09-26T05:08:52.530Z,14.04
2023-09-26T05:10:55.296Z,14.16
2023-09-26T05:13:00.258Z,14.25
2023-09-26T05:15:06.469Z,14.28
2023-09-26T05:17:09.243Z,14.17
2023-09-26T05:19:12.056Z,14.08
2023-09-26T05:21:14.768Z,13.99
2023-09-26T05:23:17.466Z,13.92
2023-09-26T05:25:20.535Z,13.96
2023-09-26T05:27:23.364Z,14.01
2023-09-26T05:29:26.151Z,13.99
2023-09-26T05:31:33.249Z,13.98
2023-09-26T05:33:36.489Z,14.07
2023-09-26T05:35:39.134Z,13.99
2023-09-26T05:37:41.741Z,14.15
2023-09-26T05:39:45.754Z,14.28
2023-09-26T05:41:48.663Z,14.42
2023-09-26T05:43:52.060Z,14.64
2023-09-26T05:45:55.021Z,14.86
2023-09-26T05:48:00.236Z,14.97
2023-09-26T05:50:05.688Z,14.90
2023-09-26T05:52:09.004Z,14.80
2023-09-26T05:54:29.339Z,14.73
2023-09-26T05:56:33.402Z,14.86
2023-09-26T05:58:36.572Z,14.85
2023-09-26T06:00:41.144Z,14.93
2023-09-26T06:02:47.562Z,14.93
2023-09-26T06:04:56.122Z,14.88
2023-09-26T06:07:04.890Z,15.00
2023-09-26T06:09:12.851Z,15.18
2023-09-26T06:11:20.883Z,15.23
2023-09-26T06:13:26.295Z,15.30
2023-09-26T06:15:30.555Z,15.33
2023-09-26T06:17:36.209Z,15.37
2023-09-26T06:19:40.660Z,15.58
2023-09-26T06:21:43.790Z,15.75
2023-09-26T06:23:46.374Z,15.86
2023-09-26T06:26:01.961Z,15.84
2023-09-26T06:28:05.079Z,16.02
2023-09-26T06:30:08.299Z,16.16
2023-09-26T06:32:12.160Z,16.11
2023-09-26T06:34:15.158Z,15.95
2023-09-26T06:36:22.734Z,15.99
2023-09-26T06:38:25.424Z,16.10
2023-09-26T06:40:28.010Z,16.14
2023-09-26T06:42:30.705Z,16.13
2023-09-26T06:44:33.570Z,16.12
2023-09-26T06:46:37.799Z,16.16
2023-09-26T06:48:44.921Z,16.22
2023-09-26T06:50:47.607Z,16.34
2023-09-26T06:52:50.324Z,16.31
2023-09-26T06:54:53.101Z,16.19
2023-09-26T06:56:56.979Z,16.18
2023-09-26T06:58:59.933Z,16.24
2023-09-26T07:01:03.357Z,16.26
2023-09-26T07:03:08.669Z,16.27
2023-09-26T07:05:11.716Z,16.25
2023-09-26T07:07:15.738Z,16.23
2023-09-26T07:09:19.437Z,16.19
2023-09-26T07:11:24.151Z,16.25
2023-09-26T07:13:47.293Z,16.30
2023-09-26T07:16:00.252Z,16.35
2023-09-26T07:18:08.295Z,16.37
2023-09-26T07:20:16.598Z,16.43
2023-09-26T07:22:19.937Z,16.49
2023-09-26T07:24:24.430Z,16.56
2023-09-26T07:26:33.746Z,16.63
2023-09-26T07:28:36.652Z,16.68
2023-09-26T07:30:39.745Z,16.73
2023-09-26T07:32:42.896Z,16.77
2023-09-26T07:34:46.037Z,16.67
2023-09-26T07:36:48.866Z,16.72
2023-09-26T07:38:52.231Z,16.79
2023-09-26T07:40:55.243Z,16.90
2023-09-26T07:42:57.977Z,16.88
2023-09-26T07:45:00.746Z,16.88
2023-09-26T07:47:04.519Z,16.88
2023-09-26T07:49:07.325Z,16.75
2023-09-26T07:51:13.943Z,16.64
2023-09-26T07:53:18.881Z,16.66
2023-09-26T07:55:21.706Z,16.65
2023-09-26T07:57:25.068Z,16.68
2023-09-26T07:59:27.944Z,16.70
2023-09-26T08:01:32.932Z,16.73
2023-09-26T08:03:37.044Z,16.86
2023-09-26T08:05:40.157Z,16.88
2023-09-26T08:07:44.849Z,16.96
2023-09-26T08:09:47.796Z,16.92
2023-09-26T08:11:50.985Z,16.93
2023-09-26T08:13:54.054Z,16.78
2023-09-26T08:15:57.233Z,16.87
2023-09-26T08:18:00.461Z,16.93
2023-09-26T08:20:03.431Z,17.03
2023-09-26T08:22:07.146Z,17.13
2023-09-26T08:24:10.051Z,17.13
2023-09-26T08:26:13.158Z,17.19
2023-09-26T08:28:18.165Z,17.29
2023-09-26T08:30:21.186Z,17.26
2023-09-26T08:32:24.119Z,17.27
2023-09-26T08:34:39.054Z,17.40
2023-09-26T08:36:41.707Z,17.46
2023-09-26T08:38:45.695Z,17.45
2023-09-26T08:40:53.048Z,17.48
2023-09-26T08:42:58.809Z,17.55
2023-09-26T08:45:02.725Z,17.58
2023-09-26T08:47:09.166Z,17.67
2023-09-26T08:49:12.073Z,17.68
2023-09-26T08:51:15.020Z,17.81
2023-09-26T08:53:17.972Z,17.84
2023-09-26T08:55:22.370Z,17.88
2023-09-26T08:57:25.331Z,17.82
2023-09-26T08:59:32.900Z,17.72
2023-09-26T09:01:36.145Z,17.81
2023-09-26T09:03:38.976Z,17.89
2023-09-26T09:05:44.299Z,18.02
2023-09-26T09:07:50.672Z,18.13
2023-09-26T09:10:09.864Z,18.04
2023-09-26T09:12:25.575Z,18.06
2023-09-26T09:14:36.325Z,18.01
2023-09-26T09:16:39.398Z,18.01
2023-09-26T09:18:48.787Z,18.16
2023-09-26T09:20:51.578Z,18.31
2023-09-26T09:23:01.036Z,18.39
2023-09-26T09:25:04.418Z,18.32
2023-09-26T09:27:08.306Z,18.18
2023-09-26T09:29:19.341Z,18.19
2023-09-26T09:31:23.602Z,18.21
2023-09-26T09:33:27.617Z,18.33
2023-09-26T09:35:31.205Z,18.51
2023-09-26T09:37:33.880Z,18.63
2023-09-26T09:39:36.581Z,18.60
2023-09-26T09:41:40.312Z,18.71
2023-09-26T09:43:43.201Z,18.86
2023-09-26T09:45:48.895Z,18.93
2023-09-26T09:47:53.476Z,18.99
2023-09-26T09:50:00.943Z,18.97
2023-09-26T09:52:06.580Z,19.06
2023-09-26T09:54:14.288Z,19.22
2023-09-26T09:56:20.825Z,19.19
2023-09-26T09:58:30.797Z,19.15
2023-09-26T10:00:37.564Z,19.18
2023-09-26T10:02:41.188Z,19.21
2023-09-26T10:04:46.368Z,19.27
2023-09-26T10:06:49.520Z,19.27
2023-09-26T10:08:55.159Z,19.23
2023-09-26T10:11:00.485Z,19.30
2023-09-26T10:15:17.260Z,19.32
2023-09-26T10:17:20.817Z,19.46
2023-09-26T10:19:34.037Z,19.44
2023-09-26T10:21:42.812Z,19.59
2023-09-26T10:24:11.353Z,19.63
2023-09-26T10:26:14.125Z,19.69
2023-09-26T10:28:18.035Z,19.60
2023-09-26T10:30:21.180Z,19.44
2023-09-26T10:32:44.753Z,19.46
2023-09-26T10:34:54.623Z,19.40
2023-09-26T10:37:00.012Z,19.44
2023-09-26T10:39:07.867Z,19.47
2023-09-26T10:41:10.610Z,19.49
2023-09-26T10:45:19.425Z,19.58
2023-09-26T10:47:25.437Z,19.65
2023-09-26T10:49:33.156Z,19.75
2023-09-26T10:51:43.117Z,19.94
2023-09-26T10:53:52.135Z,20.03
2023-09-26T10:56:04.337Z,20.13
2023-09-26T11:01:04.751Z,20.09
2023-09-26T11:03:14.319Z,20.02
2023-09-26T11:05:21.551Z,20.02
2023-09-26T11:07:30.308Z,20.05
2023-09-26T11:09:44.817Z,20.18
2023-09-26T11:11:49.426Z,20.24
2023-09-26T11:13:56.093Z,20.28
2023-09-26T11:16:04.946Z,20.25
2023-09-26T11:18:14.404Z,20.15
2023-09-26T11:20:20.881Z,20.23
2023-09-26T11:22:23.855Z,20.35
2023-09-26T11:24:32.905Z,20.46
2023-09-26T11:26:37.028Z,20.53
2023-09-26T11:28:40.628Z,20.57
2023-09-26T11:30:43.633Z,20.61
2023-09-26T11:32:51.883Z,20.61
2023-09-26T11:34:54.803Z,20.71
2023-09-26T11:36:59.265Z,20.94
2023-09-26T11:39:02.565Z,21.09
2023-09-26T11:41:05.473Z,21.29
2023-09-26T11:43:08.468Z,21.48
2023-09-26T11:45:23.537Z,21.57
2023-09-26T11:47:26.549Z,21.70
2023-09-26T11:49:30.908Z,21.77
2023-09-26T11:51:33.982Z,21.84
2023-09-26T11:53:38.799Z,21.87
2023-09-26T11:55:44.030Z,21.87
2023-09-26T11:57:47.555Z,21.97
2023-09-26T11:59:50.768Z,22.08
2023-09-26T12:01:55.984Z,22.04
2023-09-26T12:04:03.161Z,22.06
2023-09-26T12:06:06.695Z,21.99
2023-09-26T12:08:09.845Z,21.93
2023-09-26T12:10:13.880Z,21.90
2023-09-26T12:12:17.104Z,21.85
2023-09-26T12:14:20.747Z,21.80
2023-09-26T12:16:24.749Z,21.82
2023-09-26T12:18:28.613Z,21.82
2023-09-26T12:20:31.552Z,21.87
2023-09-26T12:22:37.937Z,21.84
2023-09-26T12:24:42.730Z,21.92
2023-09-26T12:26:49.019Z,21.99
2023-09-26T12:28:52.907Z,21.71
2023-09-26T12:30:56.001Z,21.59
2023-09-26T12:33:01.647Z,21.43
2023-09-26T12:35:06.811Z,21.36
2023-09-26T12:37:10.051Z,21.30
2023-09-26T12:39:13.326Z,21.29
2023-09-26T12:41:16.573Z,21.32
2023-09-26T12:43:19.628Z,21.19
2023-09-26T12:45:22.760Z,21.13
2023-09-26T12:47:25.822Z,21.07
2023-09-26T12:49:28.733Z,21.10
2023-09-26T12:51:32.041Z,21.17
2023-09-26T12:53:34.813Z,21.14
2023-09-26T12:55:37.961Z,21.08
2023-09-26T12:57:41.262Z,21.09
2023-09-26T12:59:44.469Z,21.15
2023-09-26T13:01:47.826Z,21.20
2023-09-26T13:03:51.773Z,21.27
2023-09-26T13:05:55.288Z,21.33
2023-09-26T13:07:58.263Z,21.35
2023-09-26T13:10:02.001Z,21.32
2023-09-26T13:12:08.243Z,21.27
2023-09-26T13:14:12.513Z,21.27
2023-09-26T13:16:15.592Z,21.25
2023-09-26T13:18:18.516Z,21.23
2023-09-26T13:20:22.537Z,21.30
2023-09-26T13:22:26.676Z,21.42
2023-09-26T13:24:29.588Z,21.32
2023-09-26T13:26:35.894Z,21.26
2023-09-26T13:28:38.793Z,21.24
2023-09-26T13:30:42.732Z,21.15
2023-09-26T13:32:45.857Z,21.18
2023-09-26T13:34:48.921Z,21.11
2023-09-26T13:36:53.663Z,20.96
2023-09-26T13:38:56.521Z,20.78
2023-09-26T13:40:59.442Z,20.73
2023-09-26T13:43:02.428Z,20.68
2023-09-26T13:45:06.840Z,20.67
2023-09-26T13:47:10.862Z,20.64
2023-09-26T13:49:14.064Z,20.60
2023-09-26T13:51:17.332Z,20.53
2023-09-26T13:53:20.588Z,20.45
2023-09-26T13:55:23.390Z,20.35
2023-09-26T13:57:27.007Z,20.23
2023-09-26T13:59:29.772Z,20.14
2023-09-26T14:01:32.930Z,20.02
2023-09-26T14:03:36.088Z,19.86
2023-09-26T14:05:39.001Z,19.70
2023-09-26T14:07:42.730Z,19.53
2023-09-26T14:09:45.659Z,19.39
2023-09-26T14:11:48.386Z,19.30
2023-09-26T14:13:51.298Z,19.20
2023-09-26T14:15:57.844Z,19.14
2023-09-26T14:18:01.196Z,19.04
2023-09-26T14:20:08.636Z,18.92
2023-09-26T14:22:11.818Z,18.76
2023-09-26T14:24:14.792Z,18.68
2023-09-26T14:26:20.404Z,18.57
2023-09-26T14:28:24.482Z,18.49
2023-09-26T14:30:29.895Z,18.41
2023-09-26T14:32:33.195Z,18.34
2023-09-26T14:34:36.194Z,18.28
2023-09-26T14:36:39.348Z,18.24
2023-09-26T14:38:42.934Z,18.15
2023-09-26T14:40:45.902Z,18.09
2023-09-26T14:42:48.660Z,18.02
2023-09-26T14:44:53.244Z,17.97
2023-09-26T14:46:56.503Z,17.89
2023-09-26T14:48:59.385Z,17.81
2023-09-26T14:51:02.191Z,17.78
2023-09-26T14:53:06.480Z,17.67
2023-09-26T14:55:09.261Z,17.64
2023-09-26T14:57:12.012Z,17.57
2023-09-26T14:59:15.039Z,17.51
2023-09-26T15:01:20.234Z,17.45
2023-09-26T15:03:23.573Z,17.40
2023-09-26T15:05:29.243Z,17.39
2023-09-26T15:07:32.177Z,17.36
2023-09-26T15:09:35.145Z,17.32
2023-09-26T15:11:38.237Z,17.26
2023-09-26T15:13:41.119Z,17.23
2023-09-26T15:15:44.249Z,17.18
2023-09-26T15:17:48.099Z,17.15
2023-09-26T15:19:51.050Z,17.10
2023-09-26T15:21:53.901Z,17.08
2023-09-26T15:23:56.708Z,17.04
2023-09-26T15:26:01.041Z,16.99
2023-09-26T15:28:04.313Z,16.97
2023-09-26T15:30:08.677Z,16.95
2023-09-26T15:32:11.444Z,16.90
2023-09-26T15:34:16.000Z,16.87
2023-09-26T15:36:19.070Z,16.83
2023-09-26T15:38:23.754Z,16.78
2023-09-26T15:40:27.081Z,16.76
2023-09-26T15:42:30.420Z,16.69
2023-09-26T15:44:43.676Z,16.63
2023-09-26T15:46:47.927Z,16.57
2023-09-26T15:48:52.224Z,16.57
2023-09-26T15:51:09.040Z,16.56
2023-09-26T15:53:14.781Z,16.52
2023-09-26T15:55:17.568Z,16.46
2023-09-26T15:57:20.691Z,16.47
2023-09-26T15:59:24.810Z,16.41
2023-09-26T16:01:29.258Z,16.38
2023-09-26T16:03:34.378Z,16.36
2023-09-26T16:05:38.802Z,16.30
2023-09-26T16:07:41.944Z,16.23
2023-09-26T16:09:46.327Z,16.17
2023-09-26T16:11:49.487Z,16.13
2023-09-26T16:13:53.337Z,16.09
2023-09-26T16:15:59.195Z,16.05
2023-09-26T16:18:03.673Z,16.01
2023-09-26T16:20:08.797Z,15.99
2023-09-26T16:22:13.742Z,15.97
2023-09-26T16:24:17.302Z,15.96
2023-09-26T16:26:20.414Z,15.93
2023-09-26T16:28:23.493Z,15.89
2023-09-26T16:30:26.598Z,15.83
2023-09-26T16:32:32.301Z,15.81
2023-09-26T16:34:36.656Z,15.76
2023-09-26T16:36:45.484Z,15.75
2023-09-26T16:38:49.047Z,15.71
2023-09-26T16:40:52.142Z,15.69
2023-09-26T16:42:55.373Z,15.65
2023-09-26T16:44:59.669Z,15.62
2023-09-26T16:47:04.547Z,15.58
2023-09-26T16:49:09.188Z,15.57
2023-09-26T16:51:12.770Z,15.54
2023-09-26T16:53:16.967Z,15.53
2023-09-26T16:55:19.996Z,15.50
2023-09-26T16:57:23.094Z,15.46
2023-09-26T16:59:26.429Z,15.41
2023-09-26T17:01:32.317Z,15.38
2023-09-26T17:03:38.830Z,15.37
2023-09-26T17:05:43.496Z,15.40
2023-09-26T17:07:48.184Z,15.41
2023-09-26T17:09:52.037Z,15.43
2023-09-26T17:11:55.524Z,15.42
2023-09-26T17:13:58.837Z,15.42
2023-09-26T17:16:02.426Z,15.42
2023-09-26T17:18:06.100Z,15.39
2023-09-26T17:20:09.839Z,15.41
2023-09-26T17:22:12.779Z,15.38
2023-09-26T17:24:16.861Z,15.37
2023-09-26T17:26:25.745Z,15.33
2023-09-26T17:28:28.916Z,15.28
2023-09-26T17:30:33.457Z,15.25
2023-09-26T17:32:37.402Z,15.20
2023-09-26T17:34:40.432Z,15.23
2023-09-26T17:36:44.918Z,15.21
2023-09-26T17:38:48.781Z,15.17
2023-09-26T17:40:55.594Z,15.18
2023-09-26T17:42:59.852Z,15.18
2023-09-26T17:45:04.818Z,15.15
2023-09-26T17:47:08.707Z,15.10
2023-09-26T17:49:11.911Z,15.15
2023-09-26T17:51:18.289Z,15.17
2023-09-26T17:53:21.485Z,15.23
2023-09-26T17:55:24.261Z,15.25
2023-09-26T17:57:27.116Z,15.23
2023-09-26T17:59:29.991Z,15.22
2023-09-26T18:01:32.868Z,15.22
2023-09-26T18:03:36.443Z,15.18
2023-09-26T18:05:39.529Z,15.17
2023-09-26T18:07:42.469Z,15.13
2023-09-26T18:09:46.161Z,15.12
2023-09-26T18:11:48.983Z,15.04
2023-09-26T18:13:52.032Z,15.06
2023-09-26T18:15:55.818Z,15.06
2023-09-26T18:17:58.975Z,15.04
2023-09-26T18:20:02.727Z,15.02
2023-09-26T18:22:07.752Z,15.00
2023-09-26T18:24:11.255Z,14.96
2023-09-26T18:26:14.372Z,14.94
2023-09-26T18:28:18.937Z,14.95
2023-09-26T18:30:22.934Z,14.92
2023-09-26T18:32:26.830Z,14.85
2023-09-26T18:34:30.015Z,14.72
2023-09-26T18:36:33.224Z,14.68
2023-09-26T18:38:36.119Z,14.62
2023-09-26T18:40:39.006Z,14.54
2023-09-26T18:42:41.911Z,14.50
2023-09-26T18:44:44.767Z,14.42
2023-09-26T18:46:49.112Z,14.34
2023-09-26T18:48:52.118Z,14.28
2023-09-26T18:50:55.076Z,14.23
2023-09-26T18:52:58.139Z,14.20
2023-09-26T18:55:01.064Z,14.14
2023-09-26T18:57:05.991Z,14.09
2023-09-26T18:59:08.682Z,14.06
2023-09-26T19:01:11.483Z,14.03
2023-09-26T19:03:14.635Z,13.99
2023-09-26T19:05:17.740Z,13.89
2023-09-26T19:07:20.617Z,13.88
2023-09-26T19:09:23.704Z,13.88
2023-09-26T19:11:27.832Z,13.84
2023-09-26T19:13:30.740Z,13.80
2023-09-26T19:15:33.527Z,13.77
2023-09-26T19:17:37.141Z,13.71
2023-09-26T19:19:41.391Z,13.69
2023-09-26T19:21:44.376Z,13.66
2023-09-26T19:23:47.293Z,13.65
2023-09-26T19:25:50.647Z,13.63
2023-09-26T19:27:53.375Z,13.60
2023-09-26T19:29:56.252Z,13.58
2023-09-26T19:32:00.265Z,13.54
2023-09-26T19:34:03.320Z,13.53
2023-09-26T19:36:07.024Z,13.51
2023-09-26T19:38:09.807Z,13.49
2023-09-26T19:40:12.752Z,13.49
2023-09-26T19:42:15.569Z,13.47
2023-09-26T19:44:18.621Z,13.45
2023-09-26T19:46:21.366Z,13.42
2023-09-26T19:48:24.236Z,13.39
2023-09-26T19:50:27.441Z,13.37
2023-09-26T19:52:30.187Z,13.34
2023-09-26T19:54:32.958Z,13.29
2023-09-26T19:56:35.672Z,13.27
2023-09-26T19:58:38.454Z,13.25
2023-09-26T20:00:45.126Z,13.24
2023-09-26T20:02:48.051Z,13.20
2023-09-26T20:04:50.774Z,13.19
2023-09-26T20:06:53.493Z,13.17
2023-09-26T20:08:56.702Z,13.17
2023-09-26T20:10:59.729Z,13.16
2023-09-26T20:13:02.522Z,13.14
2023-09-26T20:15:18.585Z,13.14
2023-09-26T20:17:26.443Z,13.10
2023-09-26T20:19:32.685Z,13.05
2023-09-26T20:21:35.374Z,13.05
2023-09-26T20:23:38.087Z,13.03
2023-09-26T20:25:40.961Z,12.96
2023-09-26T20:27:43.758Z,12.98
2023-09-26T20:29:46.444Z,12.94
2023-09-26T20:31:49.262Z,12.93
2023-09-26T20:33:51.998Z,12.89
2023-09-26T20:35:58.784Z,12.87
2023-09-26T20:38:01.700Z,12.85
2023-09-26T20:40:05.233Z,12.81
2023-09-26T20:42:10.162Z,12.79
2023-09-26T20:44:13.047Z,12.78
2023-09-26T20:46:15.933Z,12.75
2023-09-26T20:48:18.628Z,12.73
2023-09-26T20:50:21.455Z,12.71
2023-09-26T20:52:24.171Z,12.68
2023-09-26T20:54:28.302Z,12.68
2023-09-26T20:56:31.049Z,12.66
2023-09-26T20:58:35.089Z,12.63
2023-09-26T21:00:37.860Z,12.62
2023-09-26T21:02:40.896Z,12.55
2023-09-26T21:04:43.784Z,12.56
2023-09-26T21:06:50.616Z,12.53
2023-09-26T21:08:53.641Z,12.49
2023-09-26T21:11:01.040Z,12.47
2023-09-26T21:13:04.164Z,12.43
2023-09-26T21:15:07.645Z,12.40
2023-09-26T21:17:11.239Z,12.38
2023-09-26T21:19:14.110Z,12.34
2023-09-26T21:21:21.558Z,12.33
2023-09-26T21:23:24.267Z,12.31
2023-09-26T21:25:26.964Z,12.26
2023-09-26T21:27:29.756Z,12.25
2023-09-26T21:29:32.477Z,12.23
2023-09-26T21:31:35.279Z,12.21
2023-09-26T21:33:39.161Z,12.20
2023-09-26T21:35:41.822Z,12.16
2023-09-26T21:37:44.719Z,12.16
2023-09-26T21:39:47.509Z,12.14
2023-09-26T21:41:50.202Z,12.11
2023-09-26T21:43:52.902Z,12.10
2023-09-26T21:45:55.836Z,12.07
2023-09-26T21:47:59.045Z,12.05
2023-09-26T21:50:04.458Z,12.04
2023-09-26T21:52:07.945Z,12.01
2023-09-26T21:54:10.669Z,12.00
2023-09-26T21:56:13.419Z,11.99
2023-09-26T21:58:16.227Z,11.99
2023-09-26T22:00:23.166Z,11.98
2023-09-26T22:02:26.028Z,11.96
2023-09-26T22:04:29.341Z,11.96
2023-09-26T22:06:37.718Z,11.93
2023-09-26T22:08:43.936Z,11.92
2023-09-26T22:10:46.943Z,11.89
2023-09-26T22:12:50.013Z,11.87
2023-09-26T22:14:53.946Z,11.84
2023-09-26T22:16:56.671Z,11.83
2023-09-26T22:18:59.994Z,11.79
2023-09-26T22:21:02.892Z,11.77
2023-09-26T22:23:06.785Z,11.74
2023-09-26T22:25:10.545Z,11.72
2023-09-26T22:27:13.240Z,11.69
2023-09-26T22:29:15.949Z,11.67
2023-09-26T22:31:18.704Z,11.66
2023-09-26T22:33:23.536Z,11.65
2023-09-26T22:35:26.511Z,11.64
2023-09-26T22:37:29.278Z,11.61
2023-09-26T22:39:32.000Z,11.59
2023-09-26T22:41:34.714Z,11.60
2023-09-26T22:43:37.483Z,11.63
2023-09-26T22:45:40.264Z,11.64
2023-09-26T22:47:43.046Z,11.66
2023-09-26T22:49:45.847Z,11.66
2023-09-26T22:51:49.224Z,11.67
2023-09-26T22:53:54.870Z,11.68
2023-09-26T22:55:57.739Z,11.69
2023-09-26T22:58:00.525Z,11.64
2023-09-26T23:00:03.957Z,11.66
2023-09-26T23:02:08.490Z,11.66
2023-09-26T23:04:11.291Z,11.65
2023-09-26T23:06:14.150Z,11.62
2023-09-26T23:08:16.856Z,11.62
2023-09-26T23:10:19.780Z,11.62
2023-09-26T23:12:22.489Z,11.60
2023-09-26T23:14:25.353Z,11.57
2023-09-26T23:16:28.119Z,11.56
2023-09-26T23:18:30.784Z,11.55
2023-09-26T23:20:41.391Z,11.49
2023-09-26T23:22:44.272Z,11.54
2023-09-26T23:24:47.006Z,11.54
2023-09-26T23:26:49.766Z,11.53
2023-09-26T23:28:52.644Z,11.51
2023-09-26T23:30:55.810Z,11.52
2023-09-26T23:32:59.898Z,11.49
2023-09-26T23:35:02.785Z,11.46
2023-09-26T23:37:06.510Z,11.42
2023-09-26T23:39:09.423Z,11.40
2023-09-26T23:41:12.596Z,11.37
2023-09-26T23:43:17.236Z,11.34
2023-09-26T23:45:21.182Z,11.33
2023-09-26T23:47:24.333Z,11.30
2023-09-26T23:49:26.996Z,11.28
2023-09-26T23:51:29.885Z,11.26
2023-09-26T23:53:34.053Z,11.23
2023-09-26T23:55:38.445Z,11.22
2023-09-26T23:57:41.254Z,11.18
2023-09-26T23:59:44.098Z,11.14
